createdAt,value
2017-09-05T00:00:23.456Z,88.11
2017-09-05T00:01:33.746Z,88.78
2017-09-05T00:02:43.950Z,88.78
2017-09-05T00:03:53.906Z,89.45
2017-09-05T00:05:03.868Z,89.73
2017-09-05T00:06:14.137Z,89.54
2017-09-05T00:07:24.418Z,89.45
2017-09-05T00:08:34.640Z,89.73
2017-09-05T00:09:44.591Z,90.21
2017-09-05T00:10:54.541Z,90.5
2017-09-05T00:12:04.813Z,90.31
2017-09-05T00:13:14.777Z,90.02
2017-09-05T00:14:24.686Z,90.5
2017-09-05T00:15:34.960Z,91.07
2017-09-05T00:16:45.228Z,91.16
2017-09-05T00:17:55.188Z,91.45
2017-09-05T00:19:05.468Z,91.83
2017-09-05T00:20:15.678Z,91.74
2017-09-05T00:21:25.639Z,91.55
2017-09-05T00:22:35.930Z,92.21
2017-09-05T00:23:46.224Z,92.6
2017-09-05T00:24:56.494Z,92.5
2017-09-05T00:26:07.026Z,92.6
2017-09-05T00:27:17.300Z,92.6
2017-09-05T00:28:27.573Z,93.17
2017-09-05T00:29:37.534Z,93.36
2017-09-05T00:30:47.825Z,93.26
2017-09-05T00:31:58.044Z,93.07
2017-09-05T00:33:07.994Z,92.97
2017-09-05T00:34:18.269Z,92.88
2017-09-05T00:35:28.213Z,92.6
2017-09-05T00:36:38.158Z,92.88
2017-09-05T00:37:48.690Z,92.79
2017-09-05T00:38:58.968Z,93.26
2017-09-05T00:40:08.933Z,93.41
2017-09-05T00:41:19.199Z,93.36
2017-09-05T00:42:29.464Z,93.17
2017-09-05T00:43:39.997Z,93.26
2017-09-05T00:44:49.948Z,93.26
2017-09-05T00:45:59.900Z,93.31
2017-09-05T00:47:10.172Z,93.46
2017-09-05T00:48:20.446Z,93.46
2017-09-05T00:49:30.974Z,93.07
2017-09-05T00:50:40.615Z,93.46
2017-09-05T00:51:50.896Z,93.36
2017-09-05T00:53:00.848Z,93.46
2017-09-05T00:54:11.124Z,92.97
2017-09-05T00:55:21.324Z,93.36
2017-09-05T00:56:31.286Z,93.46
2017-09-05T00:57:41.244Z,92.88
2017-09-05T00:58:51.545Z,92.88
2017-09-05T01:00:01.511Z,93.31
2017-09-05T01:01:11.726Z,92.79
2017-09-05T01:02:21.689Z,92.97
2017-09-05T01:03:31.656Z,93.02
2017-09-05T01:04:41.924Z,92.74
2017-09-05T01:05:52.196Z,92.6
2017-09-05T01:07:02.391Z,92.74
2017-09-05T01:08:12.343Z,93.46
2017-09-05T01:09:22.621Z,93.31
2017-09-05T01:10:32.903Z,93.31
2017-09-05T01:11:42.874Z,93.46
2017-09-05T01:12:53.081Z,93.17
2017-09-05T01:14:03.359Z,93.26
2017-09-05T01:15:13.633Z,93.22
2017-09-05T01:16:23.910Z,93.41
2017-09-05T01:17:33.554Z,93.41
2017-09-05T01:18:44.071Z,93.31
2017-09-05T01:19:54.361Z,93.26
2017-09-05T01:21:04.639Z,92.74
2017-09-05T01:22:14.596Z,93.31
2017-09-05T01:23:24.870Z,93.22
2017-09-05T01:24:35.400Z,93.22
2017-09-05T01:25:45.360Z,93.22
2017-09-05T01:26:55.619Z,93.41
2017-09-05T01:28:05.900Z,92.74
2017-09-05T01:29:16.166Z,92.83
2017-09-05T01:30:26.692Z,93.12
2017-09-05T01:31:36.660Z,93.22
2017-09-05T01:32:46.623Z,93.02
2017-09-05T01:33:56.899Z,93.7
2017-09-05T01:35:06.880Z,93.6
2017-09-05T01:36:17.398Z,94.17
2017-09-05T01:37:27.344Z,94.17
2017-09-05T01:38:37.620Z,94.46
2017-09-05T01:39:47.874Z,94.17
2017-09-05T01:40:57.522Z,95.03
2017-09-05T01:42:08.051Z,95.61
2017-09-05T01:43:18.002Z,94.74
2017-09-05T01:44:27.640Z,95.22
2017-09-05T01:45:37.907Z,95.03
2017-09-05T01:46:47.872Z,95.32
2017-09-05T01:47:57.757Z,95.98
2017-09-05T01:49:08.033Z,96.27
2017-09-05T01:50:17.994Z,95.89
2017-09-05T01:51:27.952Z,95.32
2017-09-05T01:52:37.907Z,96.08
2017-09-05T01:53:48.438Z,95.32
2017-09-05T01:54:58.701Z,95.79
2017-09-05T01:56:08.953Z,95.61
2017-09-05T01:57:19.239Z,95.75
2017-09-05T01:58:29.526Z,95.75
2017-09-05T01:59:39.733Z,95.94
2017-09-05T02:00:50.001Z,95.94
2017-09-05T02:02:00.289Z,95.89
2017-09-05T02:03:10.289Z,95.65
2017-09-05T02:04:20.254Z,95.98
2017-09-05T02:05:30.456Z,95.32
2017-09-05T02:06:40.728Z,95.22
2017-09-05T02:07:50.360Z,95.51
2017-09-05T02:09:00.311Z,95.03
2017-09-05T02:10:10.587Z,94.93
2017-09-05T02:11:20.482Z,94.65
2017-09-05T02:12:30.441Z,94.56
2017-09-05T02:13:40.720Z,94.46
2017-09-05T02:14:50.997Z,94.74
2017-09-05T02:16:00.632Z,94.46
2017-09-05T02:17:11.161Z,94.46
2017-09-05T02:18:21.435Z,94.36
2017-09-05T02:19:31.075Z,94.93
2017-09-05T02:20:41.362Z,95.12
2017-09-05T02:21:51.626Z,95.41
2017-09-05T02:23:01.836Z,95.22
2017-09-05T02:24:12.142Z,95.51
2017-09-05T02:25:22.105Z,95.22
2017-09-05T02:26:32.378Z,95.22
2017-09-05T02:27:41.704Z,95.12
2017-09-05T02:28:52.259Z,95.22
2017-09-05T02:30:02.555Z,94.93
2017-09-05T02:31:12.837Z,95.51
2017-09-05T02:32:23.132Z,95.32
2017-09-05T02:33:33.401Z,95.32
2017-09-05T02:34:43.936Z,96.17
2017-09-05T02:35:54.197Z,95.79
2017-09-05T02:37:04.159Z,95.98
2017-09-05T02:38:14.114Z,95.89
2017-09-05T02:39:24.092Z,96.08
2017-09-05T02:40:34.605Z,96.08
2017-09-05T02:41:44.875Z,96.17
2017-09-05T02:42:54.835Z,96.46
2017-09-05T02:44:04.785Z,96.84
2017-09-05T02:45:14.745Z,96.84
2017-09-05T02:46:25.261Z,96.8
2017-09-05T02:47:34.898Z,96.61
2017-09-05T02:48:44.848Z,96.61
2017-09-05T02:49:55.129Z,96.75
2017-09-05T02:51:05.096Z,96.8
2017-09-05T02:52:15.621Z,97.37
2017-09-05T02:53:25.881Z,97.56
2017-09-05T02:54:36.157Z,97.56
2017-09-05T02:55:46.445Z,97.66
2017-09-05T02:56:56.728Z,97.46
2017-09-05T02:58:07.244Z,97.17
2017-09-05T02:59:17.210Z,97.46
2017-09-05T03:00:27.174Z,97.46
2017-09-05T03:01:37.439Z,98.13
2017-09-05T03:02:47.084Z,97.75
2017-09-05T03:03:57.278Z,98.9
2017-09-05T03:05:06.921Z,98.13
2017-09-05T03:06:17.201Z,98.42
2017-09-05T03:07:27.168Z,98.51
2017-09-05T03:08:37.123Z,99.27
2017-09-05T03:09:47.326Z,99.08
2017-09-05T03:10:57.584Z,99.37
2017-09-05T03:12:07.232Z,99.56
2017-09-05T03:13:17.193Z,99.46
2017-09-05T03:14:27.467Z,99.66
2017-09-05T03:15:38.001Z,99.75
2017-09-05T03:16:47.954Z,99.99
2017-09-05T03:17:57.911Z,99.99
2017-09-05T03:19:08.171Z,99.99
2017-09-05T03:20:18.118Z,99.99
2017-09-05T03:21:28.645Z,99.99
2017-09-05T03:22:38.287Z,99.99
2017-09-05T03:23:48.241Z,99.99
2017-09-05T03:24:58.509Z,99.99
2017-09-05T03:26:08.784Z,99.99
2017-09-05T03:27:19.306Z,99.99
2017-09-05T03:28:29.564Z,99.99
2017-09-05T03:29:39.843Z,99.99
2017-09-05T03:30:50.117Z,99.99
2017-09-05T03:32:00.397Z,99.99
2017-09-05T03:33:10.923Z,99.99
2017-09-05T03:34:21.201Z,99.99
2017-09-05T03:35:31.145Z,99.99
2017-09-05T03:36:41.109Z,99.99
2017-09-05T03:37:51.987Z,99.99
2017-09-05T03:39:02.519Z,99.99
2017-09-05T03:40:12.486Z,99.99
2017-09-05T03:41:22.775Z,99.99
2017-09-05T03:42:33.048Z,99.99
2017-09-05T03:43:43.345Z,99.99
2017-09-05T03:44:53.548Z,99.99
2017-09-05T03:46:03.822Z,99.99
2017-09-05T03:47:14.115Z,99.99
2017-09-05T03:48:24.378Z,99.99
2017-09-05T03:49:34.334Z,99.99
2017-09-05T03:50:44.865Z,99.99
2017-09-05T03:51:54.818Z,99.99
2017-09-05T03:53:04.772Z,99.99
2017-09-05T03:54:15.045Z,99.99
2017-09-05T03:55:25.315Z,99.99
2017-09-05T03:56:35.841Z,99.99
2017-09-05T03:57:46.108Z,99.99
2017-09-05T03:58:56.373Z,99.99
2017-09-05T04:00:06.331Z,99.99
2017-09-05T04:01:16.597Z,99.99
2017-09-05T04:02:27.116Z,99.99
2017-09-05T04:03:36.753Z,99.99
2017-09-05T04:04:46.705Z,99.99
2017-09-05T04:05:56.980Z,99.99
2017-09-05T04:07:07.255Z,99.99
2017-09-05T04:08:17.497Z,99.99
2017-09-05T04:09:27.768Z,99.99
2017-09-05T04:10:38.031Z,99.99
2017-09-05T04:11:48.216Z,99.99
2017-09-05T04:12:57.869Z,99.99
2017-09-05T04:14:08.382Z,99.99
2017-09-05T04:15:18.014Z,99.99
2017-09-05T04:16:28.293Z,99.99
2017-09-05T04:17:38.558Z,99.99
2017-09-05T04:18:47.869Z,99.99
2017-09-05T04:19:57.786Z,99.99
2017-09-05T04:21:08.095Z,99.99
2017-09-05T04:22:18.370Z,99.99
2017-09-05T04:23:28.331Z,99.99
2017-09-05T04:24:38.284Z,99.99
2017-09-05T04:25:48.492Z,99.99
2017-09-05T04:26:58.763Z,99.99
2017-09-05T04:28:09.040Z,99.99
2017-09-05T04:29:19.300Z,99.99
2017-09-05T04:30:29.252Z,99.99
2017-09-05T04:31:39.775Z,99.99
2017-09-05T04:32:50.050Z,99.99
2017-09-05T04:34:00.318Z,99.99
2017-09-05T04:35:10.281Z,99.99
2017-09-05T04:36:20.548Z,99.99
2017-09-05T04:37:30.776Z,99.99
2017-09-05T04:38:41.047Z,99.99
2017-09-05T04:39:50.695Z,99.99
2017-09-05T04:41:00.979Z,99.99
2017-09-05T04:42:11.270Z,99.99
2017-09-05T04:43:21.812Z,99.99
2017-09-05T04:44:31.758Z,99.99
2017-09-05T04:45:41.713Z,99.99
2017-09-05T04:46:51.997Z,99.99
2017-09-05T04:48:01.628Z,99.99
2017-09-05T04:49:12.155Z,99.99
2017-09-05T04:50:22.101Z,99.99
2017-09-05T04:51:32.065Z,99.99
2017-09-05T04:52:42.030Z,99.99
2017-09-05T04:53:51.988Z,99.99
2017-09-05T04:55:02.498Z,99.99
2017-09-05T04:56:12.132Z,99.99
2017-09-05T04:57:22.423Z,99.99
2017-09-05T04:58:32.732Z,99.99
2017-09-05T04:59:42.998Z,99.99
2017-09-05T05:00:53.555Z,99.99
2017-09-05T05:02:03.831Z,99.99
2017-09-05T05:03:14.111Z,99.99
2017-09-05T05:04:24.403Z,99.99
2017-09-05T05:05:34.682Z,99.99
2017-09-05T05:06:44.881Z,99.99
2017-09-05T05:07:54.829Z,99.99
2017-09-05T05:09:04.769Z,99.99
2017-09-05T05:10:14.420Z,99.99
2017-09-05T05:11:24.391Z,99.99
2017-09-05T05:12:34.608Z,99.99
2017-09-05T05:13:44.560Z,99.99
2017-09-05T05:14:54.844Z,99.99
2017-09-05T05:16:05.126Z,99.99
2017-09-05T05:17:15.392Z,99.99
2017-09-05T05:18:25.607Z,99.99
2017-09-05T05:19:35.886Z,99.99
2017-09-05T05:20:46.180Z,99.99
2017-09-05T05:21:55.810Z,99.99
2017-09-05T05:23:06.082Z,99.99
2017-09-05T05:24:16.289Z,99.99
2017-09-05T05:25:26.247Z,99.99
2017-09-05T05:26:35.886Z,99.99
2017-09-05T05:27:46.167Z,99.99
2017-09-05T05:28:56.133Z,99.99
2017-09-05T05:30:06.361Z,99.99
2017-09-05T05:31:16.624Z,99.99
2017-09-05T05:32:26.588Z,99.99
2017-09-05T05:33:36.537Z,99.99
2017-09-05T05:34:46.496Z,99.99
2017-09-05T05:35:57.018Z,99.99
2017-09-05T05:37:07.318Z,99.99
2017-09-05T05:38:17.275Z,99.99
2017-09-05T05:39:27.561Z,99.99
2017-09-05T05:40:37.514Z,99.99
2017-09-05T05:41:47.756Z,99.99
2017-09-05T05:42:58.026Z,99.99
2017-09-05T05:44:08.297Z,99.99
2017-09-05T05:45:18.258Z,99.99
2017-09-05T05:46:28.560Z,99.99
2017-09-05T05:47:38.456Z,99.99
2017-09-05T05:48:48.426Z,99.99
2017-09-05T05:49:58.694Z,99.99
2017-09-05T05:51:08.341Z,99.99
2017-09-05T05:52:18.621Z,99.99
2017-09-05T05:53:29.155Z,99.99
2017-09-05T05:54:39.663Z,99.99
2017-09-05T05:55:49.641Z,99.99
2017-09-05T05:56:59.921Z,99.99
2017-09-05T05:58:10.200Z,99.99
2017-09-05T05:59:20.421Z,99.99
2017-09-05T06:00:30.387Z,99.95
2017-09-05T06:01:40.366Z,99.99
2017-09-05T06:02:50.364Z,99.85
2017-09-05T06:04:00.326Z,99.85
2017-09-05T06:05:10.862Z,99.42
2017-09-05T06:06:20.500Z,99.99
2017-09-05T06:07:30.764Z,99.52
2017-09-05T06:08:40.723Z,99.61
2017-09-05T06:09:51.015Z,99.13
2017-09-05T06:11:01.523Z,99.04
2017-09-05T06:12:11.483Z,99.32
2017-09-05T06:13:21.117Z,98.56
2017-09-05T06:14:31.060Z,98.27
2017-09-05T06:15:41.009Z,98.56
2017-09-05T06:16:51.552Z,99.42
2017-09-05T06:18:01.833Z,98.66
2017-09-05T06:19:11.787Z,98.18
2017-09-05T06:20:22.071Z,97.89
2017-09-05T06:21:32.050Z,97.75
2017-09-05T06:22:42.621Z,97.51
2017-09-05T06:23:52.901Z,97.56
2017-09-05T06:25:02.863Z,97.75
2017-09-05T06:26:12.826Z,96.7
2017-09-05T06:27:23.124Z,96.89
2017-09-05T06:28:33.640Z,96.22
2017-09-05T06:29:43.912Z,96.13
2017-09-05T06:30:53.906Z,96.03
2017-09-05T06:32:04.204Z,96.03
2017-09-05T06:33:14.496Z,95.56
2017-09-05T06:34:25.018Z,95.17
2017-09-05T06:35:35.286Z,95.46
2017-09-05T06:36:45.243Z,94.79
2017-09-05T06:37:54.892Z,94.55
2017-09-05T06:39:05.175Z,94.74
2017-09-05T06:40:15.711Z,94.65
2017-09-05T06:41:25.989Z,94.07
2017-09-05T06:42:35.962Z,93.98
2017-09-05T06:43:46.247Z,93.7
2017-09-05T06:44:56.506Z,94.27
2017-09-05T06:46:07.038Z,93.98
2017-09-05T06:47:17.299Z,93.79
2017-09-05T06:48:27.559Z,93.5
2017-09-05T06:49:37.528Z,93.12
2017-09-05T06:50:47.810Z,93.02
2017-09-05T06:51:58.358Z,92.69
2017-09-05T06:53:08.648Z,92.79
2017-09-05T06:54:18.967Z,93.07
2017-09-05T06:55:28.623Z,92.4
2017-09-05T06:56:38.604Z,92.11
2017-09-05T06:57:48.846Z,92.4
2017-09-05T06:58:59.138Z,91.74
2017-09-05T07:00:09.428Z,91.45
2017-09-05T07:01:19.711Z,91.83
2017-09-05T07:02:29.674Z,90.73
2017-09-05T07:03:39.877Z,89.87
2017-09-05T07:04:49.882Z,90.34
2017-09-05T07:06:00.188Z,90.53
2017-09-05T07:07:10.470Z,89.77
2017-09-05T07:08:20.758Z,89.01
2017-09-05T07:09:31.291Z,88.24
2017-09-05T07:10:41.258Z,88.62
2017-09-05T07:11:51.520Z,88.95
2017-09-05T07:13:01.783Z,88.72
2017-09-05T07:14:12.053Z,87.71
2017-09-05T07:15:22.303Z,88
2017-09-05T07:16:32.575Z,88
2017-09-05T07:17:42.856Z,88.38
2017-09-05T07:18:52.175Z,87.52
2017-09-05T07:20:02.467Z,87.81
2017-09-05T07:21:12.690Z,86.94
2017-09-05T07:22:22.653Z,86.28
2017-09-05T07:23:32.942Z,85.71
2017-09-05T07:24:42.896Z,86.57
2017-09-05T07:25:53.193Z,85.94
2017-09-05T07:27:02.771Z,84.59
2017-09-05T07:28:13.050Z,84.79
2017-09-05T07:29:23.331Z,83.26
2017-09-05T07:30:33.298Z,83.26
2017-09-05T07:31:42.963Z,83.16
2017-09-05T07:32:53.513Z,82.82
2017-09-05T07:34:03.491Z,82.63
2017-09-05T07:35:13.781Z,82.06
2017-09-05T07:36:24.077Z,81.57
2017-09-05T07:37:34.346Z,81
2017-09-05T07:38:44.880Z,81.1
2017-09-05T07:39:55.152Z,79.66
2017-09-05T07:41:05.453Z,80.24
2017-09-05T07:42:15.782Z,80.43
2017-09-05T07:43:25.733Z,78.07
2017-09-05T07:44:36.251Z,78.17
2017-09-05T07:45:46.220Z,78.45
2017-09-05T07:46:56.518Z,78.74
2017-09-05T07:48:06.801Z,78.17
2017-09-05T07:49:17.089Z,77.02
2017-09-05T07:50:27.616Z,76.44
2017-09-05T07:51:37.894Z,75.87
2017-09-05T07:52:47.842Z,75.87
2017-09-05T07:53:58.140Z,75.04
2017-09-05T07:55:08.137Z,73.22
2017-09-05T07:56:18.347Z,72.64
2017-09-05T07:57:28.626Z,72.64
2017-09-05T07:58:38.906Z,72.94
2017-09-05T07:59:48.866Z,73.32
2017-09-05T08:00:59.156Z,73.32
2017-09-05T08:02:09.699Z,73.51
2017-09-05T08:03:19.664Z,72.84
2017-09-05T08:04:29.944Z,72.59
2017-09-05T08:05:40.220Z,72.2
2017-09-05T08:06:50.513Z,71.72
2017-09-05T08:08:01.052Z,71.34
2017-09-05T08:09:11.013Z,71.92
2017-09-05T08:10:20.680Z,70.96
2017-09-05T08:11:30.671Z,70.09
2017-09-05T08:12:40.994Z,70.38
2017-09-05T08:13:51.230Z,70.57
2017-09-05T08:15:01.503Z,70.96
2017-09-05T08:16:11.784Z,70.48
2017-09-05T08:17:22.138Z,71.63
2017-09-05T08:18:32.417Z,71.15
2017-09-05T08:19:42.404Z,70.99
2017-09-05T08:20:52.357Z,70.03
2017-09-05T08:22:02.651Z,68.12
2017-09-05T08:23:12.318Z,67.86
2017-09-05T08:24:22.626Z,66.8
2017-09-05T08:25:33.178Z,66.36
2017-09-05T08:26:43.189Z,66.55
2017-09-05T08:27:53.458Z,65.4
2017-09-05T08:29:03.875Z,65.43
2017-09-05T08:30:14.378Z,64.76
2017-09-05T08:31:24.308Z,64.31
2017-09-05T08:32:34.273Z,63.92
2017-09-05T08:33:44.267Z,62.58
2017-09-05T08:34:54.234Z,62.58
2017-09-05T08:36:04.203Z,62.41
2017-09-05T08:37:14.751Z,62.9
2017-09-05T08:38:24.737Z,60.69
2017-09-05T08:39:35.009Z,59.94
2017-09-05T08:40:45.002Z,59.27
2017-09-05T08:41:55.354Z,58.12
2017-09-05T08:43:05.885Z,58.22
2017-09-05T08:44:15.878Z,59.47
2017-09-05T08:45:26.177Z,59.47
2017-09-05T08:46:36.485Z,58.5
2017-09-05T08:47:46.765Z,57.95
2017-09-05T08:48:57.298Z,58.63
2017-09-05T08:50:07.583Z,58.22
2017-09-05T08:51:17.861Z,58.6
2017-09-05T08:52:27.863Z,58.89
2017-09-05T08:53:38.165Z,59.37
2017-09-05T08:54:48.713Z,59.27
2017-09-05T08:55:59.035Z,59.17
2017-09-05T08:57:09.345Z,58.02
2017-09-05T08:58:19.677Z,58.22
2017-09-05T08:59:29.681Z,58.05
2017-09-05T09:00:40.217Z,57.86
2017-09-05T09:01:50.187Z,57.98
2017-09-05T09:03:00.963Z,56.35
2017-09-05T09:04:11.252Z,56.44
2017-09-05T09:05:21.541Z,57.31
2017-09-05T09:06:31.771Z,58.15
2017-09-05T09:07:42.052Z,56.96
2017-09-05T09:08:52.360Z,58.02
2017-09-05T09:10:02.681Z,58.31
2017-09-05T09:11:12.985Z,58.22
2017-09-05T09:12:23.231Z,57.57
2017-09-05T09:13:33.532Z,57.18
2017-09-05T09:14:43.833Z,58.05
2017-09-05T09:15:54.147Z,57.18
2017-09-05T09:17:04.490Z,56.82
2017-09-05T09:18:14.720Z,57.31
2017-09-05T09:19:24.379Z,56.63
2017-09-05T09:20:34.366Z,55.6
2017-09-05T09:21:44.391Z,54.93
2017-09-05T09:22:54.054Z,54.54
2017-09-05T09:24:04.628Z,54.74
2017-09-05T09:25:14.914Z,54.74
2017-09-05T09:26:24.894Z,54.83
2017-09-05T09:27:34.872Z,54.93
2017-09-05T09:28:45.168Z,55.31
2017-09-05T09:29:55.269Z,54.64
2017-09-05T09:31:05.563Z,54.57
2017-09-05T09:32:15.544Z,53.8
2017-09-05T09:33:25.885Z,53.63
2017-09-05T09:34:36.161Z,53.44
2017-09-05T09:35:46.689Z,53.22
2017-09-05T09:36:57.001Z,52.73
2017-09-05T09:38:07.301Z,53.83
2017-09-05T09:39:17.588Z,53.25
2017-09-05T09:40:27.551Z,52.76
2017-09-05T09:41:38.136Z,53.83
2017-09-05T09:42:48.435Z,53.63
2017-09-05T09:43:58.416Z,53.53
2017-09-05T09:45:08.700Z,53.92
2017-09-05T09:46:18.351Z,53.05
2017-09-05T09:47:28.899Z,52.59
2017-09-05T09:48:38.882Z,52.5
2017-09-05T09:49:49.185Z,52.31
2017-09-05T09:50:59.169Z,53.34
2017-09-05T09:52:09.456Z,52.09
2017-09-05T09:53:19.686Z,52.28
2017-09-05T09:54:30.028Z,52.57
2017-09-05T09:55:40.323Z,53.44
2017-09-05T09:56:50.633Z,53.63
2017-09-05T09:58:00.918Z,54.31
2017-09-05T09:59:11.461Z,53.13
2017-09-05T10:00:21.456Z,53.31
2017-09-05T10:01:31.431Z,52.86
2017-09-05T10:02:41.755Z,51.99
2017-09-05T10:03:52.047Z,52.31
2017-09-05T10:05:02.585Z,51.92
2017-09-05T10:06:12.259Z,52.31
2017-09-05T10:07:22.562Z,51.25
2017-09-05T10:08:32.219Z,50.86
2017-09-05T10:09:42.510Z,50.89
2017-09-05T10:10:53.308Z,50.5
2017-09-05T10:12:03.639Z,50.91
2017-09-05T10:13:13.614Z,50.98
2017-09-05T10:14:23.989Z,50.69
2017-09-05T10:15:34.328Z,51.07
2017-09-05T10:16:44.581Z,50.98
2017-09-05T10:17:54.552Z,52.01
2017-09-05T10:19:04.893Z,51.53
2017-09-05T10:20:15.183Z,52.01
2017-09-05T10:21:25.475Z,51.8
2017-09-05T10:22:36.031Z,51.44
2017-09-05T10:23:45.695Z,51.25
2017-09-05T10:24:55.675Z,50.4
2017-09-05T10:26:05.644Z,49.85
2017-09-05T10:27:15.616Z,50.52
2017-09-05T10:28:26.143Z,52.31
2017-09-05T10:29:36.168Z,52.01
2017-09-05T10:30:46.459Z,51.25
2017-09-05T10:31:56.440Z,50.96
2017-09-05T10:33:06.430Z,51.07
2017-09-05T10:34:16.983Z,50.79
2017-09-05T10:35:27.286Z,51.37
2017-09-05T10:36:37.257Z,51.15
2017-09-05T10:37:47.235Z,50.31
2017-09-05T10:38:57.532Z,50.01
2017-09-05T10:40:08.065Z,50.01
2017-09-05T10:41:17.706Z,50.11
2017-09-05T10:42:27.992Z,49.44
2017-09-05T10:43:38.286Z,48.97
2017-09-05T10:44:48.241Z,49.17
2017-09-05T10:45:58.502Z,48.01
2017-09-05T10:47:08.849Z,48.42
2017-09-05T10:48:19.155Z,47.55
2017-09-05T10:49:29.147Z,47.28
2017-09-05T10:50:39.664Z,47.74
2017-09-05T10:51:50.243Z,48.03
2017-09-05T10:53:00.539Z,47.28
2017-09-05T10:54:09.894Z,45.95
2017-09-05T10:55:19.897Z,46.51
2017-09-05T10:56:29.885Z,46.05
2017-09-05T10:57:40.112Z,45.45
2017-09-05T10:58:50.110Z,46.12
2017-09-05T11:00:00.412Z,46.97
2017-09-05T11:01:10.747Z,46.68
2017-09-05T11:02:21.208Z,46.7
2017-09-05T11:03:31.748Z,47.19
2017-09-05T11:04:41.736Z,47.09
2017-09-05T11:05:52.034Z,47.96
2017-09-05T11:07:02.008Z,48.06
2017-09-05T11:08:12.005Z,46.7
2017-09-05T11:09:22.563Z,47.31
2017-09-05T11:10:32.833Z,47.09
2017-09-05T11:11:42.807Z,47.96
2017-09-05T11:12:53.109Z,47.58
2017-09-05T11:14:03.085Z,48.13
2017-09-05T11:15:13.308Z,47.84
2017-09-05T11:16:23.593Z,46.12
2017-09-05T11:17:33.591Z,45.93
2017-09-05T11:18:43.606Z,46.53
2017-09-05T11:19:53.913Z,45.76
2017-09-05T11:21:04.174Z,45.28
2017-09-05T11:22:14.465Z,44.7
2017-09-05T11:23:24.785Z,43.95
2017-09-05T11:24:34.745Z,42.9
2017-09-05T11:25:44.716Z,41.76
2017-09-05T11:26:55.259Z,40.52
2017-09-05T11:28:04.928Z,39.28
2017-09-05T11:29:14.924Z,40.23
2017-09-05T11:30:25.239Z,41.45
2017-09-05T11:31:35.742Z,41.82
2017-09-05T11:32:46.298Z,42.88
2017-09-05T11:33:56.289Z,41.82
2017-09-05T11:35:06.598Z,42.32
2017-09-05T11:36:16.285Z,42.78
2017-09-05T11:37:26.579Z,41.99
2017-09-05T11:38:36.807Z,41.42
2017-09-05T11:39:47.087Z,42
2017-09-05T11:40:57.390Z,41.45
2017-09-05T11:42:07.744Z,42.13
2017-09-05T11:43:17.721Z,41.45
2017-09-05T11:44:27.976Z,39.04
2017-09-05T11:45:38.300Z,39.26
2017-09-05T11:46:47.967Z,39.53
2017-09-05T11:47:58.290Z,40.89
2017-09-05T11:49:08.298Z,41.17
2017-09-05T11:50:18.899Z,42.03
2017-09-05T11:51:28.925Z,42.68
2017-09-05T11:52:38.611Z,43.34
2017-09-05T11:53:48.951Z,42.57
2017-09-05T11:54:59.372Z,41.62
2017-09-05T11:56:09.662Z,40.59
2017-09-05T11:57:20.245Z,41.2
2017-09-05T11:58:30.246Z,40.52
2017-09-05T11:59:40.544Z,39.47
2017-09-05T12:00:50.255Z,38.32
2017-09-05T12:02:00.816Z,38.79
2017-09-05T12:03:10.803Z,40.42
2017-09-05T12:04:21.135Z,40.84
2017-09-05T12:05:31.458Z,41.72
2017-09-05T12:06:41.807Z,40.73
2017-09-05T12:07:52.357Z,42.07
2017-09-05T12:09:02.045Z,41.97
2017-09-05T12:10:12.320Z,42.55
2017-09-05T12:11:22.291Z,43.24
2017-09-05T12:12:31.960Z,42.66
2017-09-05T12:13:41.881Z,42.86
2017-09-05T12:14:52.220Z,42.66
2017-09-05T12:16:02.240Z,42.76
2017-09-05T12:17:12.550Z,42.57
2017-09-05T12:18:22.529Z,42.49
2017-09-05T12:19:33.101Z,42
2017-09-05T12:20:42.748Z,41.45
2017-09-05T12:21:53.059Z,41.93
2017-09-05T12:23:03.036Z,42.51
2017-09-05T12:24:13.339Z,42.66
2017-09-05T12:25:23.875Z,42.68
2017-09-05T12:26:34.168Z,42.2
2017-09-05T12:27:44.137Z,43.27
2017-09-05T12:28:54.114Z,42.88
2017-09-05T12:30:04.085Z,40.67
2017-09-05T12:31:14.657Z,42.03
2017-09-05T12:32:24.662Z,41.25
2017-09-05T12:33:34.962Z,40.5
2017-09-05T12:34:45.270Z,38.39
2017-09-05T12:35:55.579Z,38.62
2017-09-05T12:37:06.126Z,37.47
2017-09-05T12:38:16.450Z,37.96
2017-09-05T12:39:26.761Z,36.71
2017-09-05T12:40:36.759Z,37.47
2017-09-05T12:41:47.051Z,37.84
2017-09-05T12:42:56.983Z,37.94
2017-09-05T12:44:07.287Z,37.84
2017-09-05T12:45:17.584Z,37.94
2017-09-05T12:46:27.874Z,38.48
2017-09-05T12:47:38.162Z,38.87
2017-09-05T12:48:48.719Z,39.45
2017-09-05T12:49:59.014Z,39.45
2017-09-05T12:51:09.307Z,39.36
2017-09-05T12:52:19.607Z,40.79
2017-09-05T12:53:29.919Z,40.65
2017-09-05T12:54:40.141Z,41.72
2017-09-05T12:55:50.422Z,42.37
2017-09-05T12:57:00.703Z,42.37
2017-09-05T12:58:10.682Z,42.18
2017-09-05T12:59:20.981Z,40.53
2017-09-05T13:00:31.526Z,41.04
2017-09-05T13:01:41.182Z,40.46
2017-09-05T13:02:50.855Z,39.62
2017-09-05T13:04:00.520Z,38.39
2017-09-05T13:05:10.822Z,36.97
2017-09-05T13:06:21.063Z,36.48
2017-09-05T13:07:31.358Z,37.92
2017-09-05T13:08:41.310Z,37.34
2017-09-05T13:09:50.675Z,37.35
2017-09-05T13:11:00.950Z,37.74
2017-09-05T13:12:11.167Z,37.82
2017-09-05T13:13:21.470Z,38.68
2017-09-05T13:14:31.759Z,39.55
2017-09-05T13:15:41.743Z,38.56
2017-09-05T13:16:52.042Z,38.17
2017-09-05T13:18:02.599Z,38.19
2017-09-05T13:19:12.275Z,38.58
2017-09-05T13:20:22.552Z,38.68
2017-09-05T13:21:32.836Z,37.32
2017-09-05T13:22:43.126Z,36.87
2017-09-05T13:23:53.056Z,35.43
2017-09-05T13:25:02.708Z,34.59
2017-09-05T13:26:12.381Z,33.81
2017-09-05T13:27:22.353Z,33.33
2017-09-05T13:28:32.637Z,34.09
2017-09-05T13:29:42.567Z,34.48
2017-09-05T13:30:52.562Z,33.7
2017-09-05T13:32:02.223Z,34.5
2017-09-05T13:33:11.893Z,34.97
2017-09-05T13:34:22.205Z,35.94
2017-09-05T13:35:32.804Z,36.02
2017-09-05T13:36:43.289Z,35.74
2017-09-05T13:37:53.642Z,36.11
2017-09-05T13:39:03.608Z,35.53
2017-09-05T13:40:13.917Z,36.19
2017-09-05T13:41:24.482Z,36.27
2017-09-05T13:42:34.760Z,37.32
2017-09-05T13:43:45.060Z,37.03
2017-09-05T13:44:55.043Z,36.85
2017-09-05T13:46:05.353Z,36.85
2017-09-05T13:47:15.915Z,36.95
2017-09-05T13:48:26.207Z,37.05
2017-09-05T13:49:36.510Z,37.34
2017-09-05T13:50:46.800Z,38.09
2017-09-05T13:51:56.791Z,37.41
2017-09-05T13:53:07.334Z,35.59
2017-09-05T13:54:17.314Z,37.41
2017-09-05T13:55:27.612Z,37.79
2017-09-05T13:56:37.588Z,37.69
2017-09-05T13:57:47.885Z,36.44
2017-09-05T13:58:58.413Z,35.77
2017-09-05T14:00:08.067Z,35.4
2017-09-05T14:01:18.360Z,36.36
2017-09-05T14:02:28.650Z,36.35
2017-09-05T14:03:38.961Z,36.74
2017-09-05T14:04:49.489Z,37.11
2017-09-05T14:05:59.785Z,37.11
2017-09-05T14:07:10.111Z,37.21
2017-09-05T14:08:20.416Z,36.62
2017-09-05T14:09:30.737Z,36.62
2017-09-05T14:10:41.335Z,36.62
2017-09-05T14:11:51.337Z,35.66
2017-09-05T14:13:01.635Z,35.3
2017-09-05T14:14:11.922Z,35.78
2017-09-05T14:15:22.228Z,35.88
2017-09-05T14:16:32.516Z,37.05
2017-09-05T14:17:42.797Z,37.51
2017-09-05T14:18:53.092Z,38
2017-09-05T14:20:03.394Z,34.99
2017-09-05T14:21:13.700Z,35.48
2017-09-05T14:22:24.277Z,34.33
2017-09-05T14:23:34.581Z,34.43
2017-09-05T14:24:45.253Z,34.51
2017-09-05T14:25:55.542Z,34.31
2017-09-05T14:27:05.861Z,34.39
2017-09-05T14:28:16.108Z,34.12
2017-09-05T14:29:26.408Z,33.26
2017-09-05T14:30:36.686Z,34.14
2017-09-05T14:31:46.372Z,33.26
2017-09-05T14:32:56.664Z,33.17
2017-09-05T14:34:07.206Z,33.94
2017-09-05T14:35:17.546Z,34.31
2017-09-05T14:36:27.843Z,34.51
2017-09-05T14:37:37.816Z,34.7
2017-09-05T14:38:48.107Z,35.01
2017-09-05T14:39:58.390Z,34.72
2017-09-05T14:41:08.677Z,35.41
2017-09-05T14:42:19.012Z,35.9
2017-09-05T14:43:29.317Z,36.08
2017-09-05T14:44:39.607Z,36.95
2017-09-05T14:45:49.827Z,37.03
2017-09-05T14:47:00.108Z,36.74
2017-09-05T14:48:09.468Z,36.93
2017-09-05T14:49:19.762Z,33.94
2017-09-05T14:50:30.068Z,33.26
2017-09-05T14:51:40.293Z,33.76
2017-09-05T14:52:50.613Z,34.35
2017-09-05T14:54:00.302Z,34.53
2017-09-05T14:55:10.614Z,34.99
2017-09-05T14:56:20.927Z,36.16
2017-09-05T14:57:31.492Z,36.16
2017-09-05T14:58:41.457Z,35.48
2017-09-05T14:59:51.427Z,34.62
2017-09-05T15:01:01.715Z,33.57
2017-09-05T15:02:11.703Z,32.42
2017-09-05T15:03:22.273Z,33.47
2017-09-05T15:04:32.250Z,34.99
2017-09-05T15:05:42.550Z,35.66